createdAt,value
2018-10-01T00:02:25.000Z,12.30
2018-10-01T00:04:55.381Z,12.30
2018-10-01T00:07:25.912Z,12.30
2018-10-01T00:09:56.357Z,12.30
2018-10-01T00:12:26.870Z,12.20
2018-10-01T00:14:57.333Z,12.20
2018-10-01T00:17:27.749Z,12.20
2018-10-01T00:20:03.252Z,12.30
2018-10-01T00:22:38.668Z,12.20
2018-10-01T00:25:09.222Z,12.30
2018-10-01T00:27:39.595Z,12.30
2018-10-01T00:30:10.041Z,12.30
2018-10-01T00:32:40.432Z,12.30
2018-10-01T00:35:10.979Z,12.30
2018-10-01T00:37:47.913Z,12.30
2018-10-01T00:40:18.260Z,12.30
2018-10-01T00:42:48.848Z,12.30
2018-10-01T00:45:19.244Z,12.30
2018-10-01T00:47:49.692Z,12.30
2018-10-01T00:50:26.559Z,12.30
2018-10-01T00:52:56.932Z,12.20
2018-10-01T00:55:27.353Z,12.20
2018-10-01T00:57:57.862Z,12.20
2018-10-01T01:00:28.254Z,12.20
2018-10-01T01:02:58.736Z,12.20
2018-10-01T01:05:29.218Z,12.20
2018-10-01T01:07:59.636Z,12.20
2018-10-01T01:10:30.116Z,12.20
2018-10-01T01:13:00.496Z,12.20
2018-10-01T01:15:30.892Z,12.20
2018-10-01T01:18:01.386Z,12.20
2018-10-01T01:20:31.721Z,12.20
2018-10-01T01:23:02.218Z,12.20
2018-10-01T01:25:32.509Z,12.20
2018-10-01T01:28:02.888Z,12.20
2018-10-01T01:30:33.302Z,12.20
2018-10-01T01:33:03.613Z,12.20
2018-10-01T01:35:33.951Z,12.20
2018-10-01T01:38:04.334Z,12.10
2018-10-01T01:40:34.677Z,12.10
2018-10-01T01:43:08.037Z,12.10
2018-10-01T01:45:38.514Z,12.10
2018-10-01T01:48:09.050Z,12.10
2018-10-01T01:50:39.391Z,12.10
2018-10-01T01:53:11.186Z,12.10
2018-10-01T01:55:41.513Z,12.00
2018-10-01T01:58:11.916Z,12.00
2018-10-01T02:00:42.236Z,12.00
2018-10-01T02:03:12.825Z,12.00
2018-10-01T02:05:43.201Z,12.00
2018-10-01T02:08:13.612Z,12.00
2018-10-01T02:10:43.972Z,12.00
2018-10-01T02:13:14.401Z,12.00
2018-10-01T02:15:47.732Z,11.90
2018-10-01T02:18:18.141Z,11.90
2018-10-01T02:20:48.597Z,11.90
2018-10-01T02:23:19.101Z,11.80
2018-10-01T02:25:49.513Z,11.80
2018-10-01T02:28:19.892Z,11.80
2018-10-01T02:30:50.318Z,11.70
2018-10-01T02:33:20.701Z,11.70
2018-10-01T02:35:51.176Z,11.70
2018-10-01T02:38:21.759Z,11.70
2018-10-01T02:40:52.261Z,11.70
2018-10-01T02:43:22.712Z,11.70
2018-10-01T02:45:53.013Z,11.70
2018-10-01T02:48:23.441Z,11.70
2018-10-01T02:50:53.806Z,11.60
2018-10-01T02:53:29.309Z,11.60
2018-10-01T02:55:59.716Z,11.60
2018-10-01T02:58:30.072Z,11.50
2018-10-01T03:01:00.390Z,11.50
2018-10-01T03:03:30.833Z,11.50
2018-10-01T03:06:01.224Z,11.50
2018-10-01T03:08:31.643Z,11.50
2018-10-01T03:11:02.056Z,11.50
2018-10-01T03:13:32.435Z,11.50
2018-10-01T03:16:02.832Z,11.40
2018-10-01T03:18:33.432Z,11.40
2018-10-01T03:21:04.000Z,11.40
2018-10-01T03:23:34.504Z,11.40
2018-10-01T03:26:04.917Z,11.30
2018-10-01T03:28:35.291Z,11.30
2018-10-01T03:31:05.817Z,11.30
2018-10-01T03:33:36.188Z,11.30
2018-10-01T03:36:06.649Z,11.20
2018-10-01T03:38:43.521Z,11.20
2018-10-01T03:41:13.982Z,11.20
2018-10-01T03:43:44.432Z,11.10
2018-10-01T03:46:14.893Z,11.10
2018-10-01T03:48:45.604Z,11.10
2018-10-01T03:51:16.142Z,11.10
2018-10-01T03:53:46.552Z,11.10
2018-10-01T03:56:16.983Z,11.00
2018-10-01T03:58:47.433Z,11.00
2018-10-01T04:01:17.923Z,11.00
2018-10-01T04:03:48.276Z,11.00
2018-10-01T04:06:18.688Z,10.90
2018-10-01T04:08:49.110Z,10.90
2018-10-01T04:11:19.477Z,10.90
2018-10-01T04:13:49.818Z,10.90
2018-10-01T04:16:20.182Z,10.80
2018-10-01T04:18:50.584Z,10.80
2018-10-01T04:21:27.495Z,10.80
2018-10-01T04:23:57.853Z,10.80
2018-10-01T04:26:34.797Z,10.80
2018-10-01T04:29:06.056Z,10.80
2018-10-01T04:31:36.657Z,10.80
2018-10-01T04:34:07.189Z,10.80
2018-10-01T04:36:37.691Z,10.70
2018-10-01T04:39:13.272Z,10.80
2018-10-01T04:41:43.822Z,10.70
2018-10-01T04:44:14.346Z,10.70
2018-10-01T04:46:44.798Z,10.70
2018-10-01T04:49:15.216Z,10.70
2018-10-01T04:51:45.577Z,10.70
2018-10-01T04:54:16.104Z,10.70
2018-10-01T04:56:46.501Z,10.70
2018-10-01T04:59:16.938Z,10.70
2018-10-01T05:01:47.338Z,10.70
2018-10-01T05:04:21.800Z,10.70
2018-10-01T05:06:55.526Z,10.70
2018-10-01T05:09:25.973Z,10.80
2018-10-01T05:11:56.392Z,10.70
2018-10-01T05:14:28.448Z,10.70
2018-10-01T05:17:00.000Z,10.70
2018-10-01T05:19:31.486Z,10.70
2018-10-01T05:22:03.275Z,10.70
2018-10-01T05:24:36.194Z,10.70
2018-10-01T05:27:06.990Z,10.60
2018-10-01T05:29:44.408Z,10.60
2018-10-01T05:32:15.372Z,10.60
2018-10-01T05:34:48.280Z,10.60
2018-10-01T05:37:20.029Z,10.60
2018-10-01T05:39:51.702Z,10.60
2018-10-01T05:42:23.567Z,10.50
2018-10-01T05:44:56.033Z,10.50
2018-10-01T05:47:26.792Z,10.50
2018-10-01T05:49:58.112Z,10.50
2018-10-01T05:52:29.451Z,10.50
2018-10-01T05:55:00.211Z,10.40
2018-10-01T05:57:31.447Z,10.40
2018-10-01T06:00:13.812Z,10.40
2018-10-01T06:02:44.713Z,10.40
2018-10-01T06:05:15.649Z,10.30
2018-10-01T06:07:46.381Z,10.30
2018-10-01T06:10:17.078Z,10.30
2018-10-01T06:12:47.781Z,10.30
2018-10-01T06:15:22.559Z,10.20
2018-10-01T06:17:53.102Z,10.20
2018-10-01T06:20:41.720Z,10.20
2018-10-01T06:23:13.254Z,10.20
2018-10-01T06:25:44.805Z,10.20
2018-10-01T06:28:20.416Z,10.20
2018-10-01T06:30:51.122Z,10.20
2018-10-01T06:33:22.968Z,10.10
2018-10-01T06:35:53.656Z,10.10
2018-10-01T06:38:24.257Z,10.10
2018-10-01T06:40:55.092Z,10.10
2018-10-01T06:43:25.836Z,10.10
2018-10-01T06:45:56.611Z,10.10
2018-10-01T06:48:27.333Z,10.10
2018-10-01T06:50:58.715Z,10.10
2018-10-01T06:53:29.417Z,10.10
2018-10-01T06:58:46.532Z,10.10
2018-10-01T07:01:21.936Z,10.10
2018-10-01T07:03:52.881Z,10.10
2018-10-01T07:06:23.712Z,10.10
2018-10-01T07:09:08.595Z,10.20
2018-10-01T07:11:42.383Z,10.20
2018-10-01T07:14:28.472Z,10.20
2018-10-01T07:20:34.452Z,10.30
2018-10-01T07:26:28.629Z,10.40
2018-10-01T07:28:59.533Z,10.40
2018-10-01T07:31:29.880Z,10.50
2018-10-01T07:34:00.132Z,10.50
2018-10-01T07:36:30.440Z,10.60
2018-10-01T07:39:00.786Z,10.60
2018-10-01T07:41:31.391Z,10.70
2018-10-01T07:44:01.705Z,10.70
2018-10-01T07:46:32.097Z,10.80
2018-10-01T07:49:02.471Z,10.90
2018-10-01T07:51:32.837Z,10.90
2018-10-01T07:54:03.109Z,11.00
2018-10-01T07:56:33.557Z,11.10
2018-10-01T07:59:03.892Z,11.20
2018-10-01T08:01:34.232Z,11.30
2018-10-01T08:04:05.232Z,11.40
2018-10-01T08:06:35.513Z,11.50
2018-10-01T08:09:08.939Z,11.60
2018-10-01T08:11:39.241Z,11.80
2018-10-01T08:14:09.622Z,11.90
2018-10-01T08:16:39.982Z,12.00
2018-10-01T08:19:10.632Z,12.10
2018-10-01T08:21:41.009Z,12.20
2018-10-01T08:24:27.633Z,12.30
2018-10-01T08:26:58.091Z,12.40
2018-10-01T08:29:28.450Z,12.50
2018-10-01T08:31:58.844Z,12.70
2018-10-01T08:34:29.357Z,12.70
2018-10-01T08:36:59.730Z,12.80
2018-10-01T08:39:30.012Z,12.90
2018-10-01T08:42:00.391Z,13.00
2018-10-01T08:44:30.685Z,13.00
2018-10-01T08:47:00.960Z,13.00
2018-10-01T08:49:36.677Z,13.10
2018-10-01T08:52:16.377Z,13.10
2018-10-01T08:54:48.190Z,13.10
2018-10-01T08:57:18.437Z,13.10
2018-10-01T08:59:48.831Z,13.20
2018-10-01T09:02:19.252Z,13.20
2018-10-01T09:04:49.660Z,13.30
2018-10-01T09:07:20.136Z,13.40
2018-10-01T09:09:50.513Z,13.40
2018-10-01T09:12:20.934Z,13.50
2018-10-01T09:14:51.231Z,13.50
2018-10-01T09:17:21.693Z,13.60
2018-10-01T09:19:52.110Z,13.60
2018-10-01T09:22:22.640Z,13.60
2018-10-01T09:24:53.012Z,13.70
2018-10-01T09:27:23.553Z,13.70
2018-10-01T09:29:53.994Z,13.70
2018-10-01T09:32:24.374Z,13.70
2018-10-01T09:35:10.132Z,13.70
2018-10-01T09:37:40.547Z,13.70
2018-10-01T09:40:11.136Z,13.70
2018-10-01T09:42:41.562Z,13.70
2018-10-01T09:45:11.913Z,13.70
2018-10-01T09:47:42.412Z,13.70
2018-10-01T09:50:12.790Z,13.80
2018-10-01T09:52:43.216Z,13.80
2018-10-01T09:55:13.546Z,13.90
2018-10-01T09:57:43.987Z,14.00
2018-10-01T10:00:18.385Z,14.00
2018-10-01T10:02:48.694Z,14.00
2018-10-01T10:05:18.989Z,14.00
2018-10-01T10:07:49.479Z,14.00
2018-10-01T10:10:19.866Z,14.00
2018-10-01T10:12:50.439Z,14.00
2018-10-01T10:15:20.915Z,13.90
2018-10-01T10:17:51.267Z,13.90
2018-10-01T10:20:21.804Z,13.90
2018-10-01T10:22:52.206Z,14.00
2018-10-01T10:25:22.598Z,14.00
2018-10-01T10:27:53.050Z,14.00
2018-10-01T10:30:23.409Z,14.00
2018-10-01T10:32:53.735Z,14.00
2018-10-01T10:35:24.085Z,14.00
2018-10-01T10:37:54.727Z,14.00
2018-10-01T10:40:25.114Z,14.00
2018-10-01T10:42:55.561Z,14.10
2018-10-01T10:45:25.939Z,14.10
2018-10-01T10:47:56.407Z,14.20
2018-10-01T10:50:26.894Z,14.30
2018-10-01T10:52:57.323Z,14.40
2018-10-01T10:55:27.813Z,14.50
2018-10-01T10:57:58.622Z,14.60
2018-10-01T11:00:29.048Z,14.70
2018-10-01T11:02:59.580Z,14.60
2018-10-01T11:05:35.713Z,14.40
2018-10-01T11:08:06.359Z,14.10
2018-10-01T11:10:36.753Z,14.00
2018-10-01T11:13:07.198Z,13.80
2018-10-01T11:15:37.569Z,13.70
2018-10-01T11:18:08.080Z,13.70
2018-10-01T11:20:38.513Z,13.60
2018-10-01T11:23:09.055Z,13.50
2018-10-01T11:25:39.415Z,13.50
2018-10-01T11:28:09.839Z,13.50
2018-10-01T11:30:40.257Z,13.40
2018-10-01T11:33:11.049Z,13.50
2018-10-01T11:35:41.343Z,13.50
2018-10-01T11:38:11.971Z,13.50
2018-10-01T11:40:42.292Z,13.50
2018-10-01T11:43:12.636Z,13.60
2018-10-01T11:45:42.977Z,13.60
2018-10-01T11:48:13.374Z,13.60
2018-10-01T11:50:43.602Z,13.60
2018-10-01T11:53:14.051Z,13.50
2018-10-01T11:55:44.466Z,13.40
2018-10-01T11:58:15.181Z,13.30
2018-10-01T12:00:45.464Z,13.20
2018-10-01T12:03:15.919Z,13.00
2018-10-01T12:05:46.650Z,12.80
2018-10-01T12:08:17.031Z,12.50
2018-10-01T12:10:47.430Z,12.30
2018-10-01T12:13:17.759Z,12.20
2018-10-01T12:15:48.260Z,12.10
2018-10-01T12:18:18.550Z,12.00
2018-10-01T12:20:48.866Z,11.90
2018-10-01T12:23:19.369Z,11.90
2018-10-01T12:25:49.659Z,11.90
2018-10-01T12:28:20.070Z,11.90
2018-10-01T12:30:50.428Z,11.90
2018-10-01T12:33:21.260Z,12.00
2018-10-01T12:35:51.536Z,12.00
2018-10-01T12:38:23.143Z,12.00
2018-10-01T12:40:58.523Z,12.10
2018-10-01T12:43:28.892Z,12.10
2018-10-01T12:45:59.238Z,12.20
2018-10-01T12:48:29.566Z,12.30
2018-10-01T12:50:59.892Z,12.30
2018-10-01T12:53:30.221Z,12.30
2018-10-01T12:56:00.529Z,12.40
2018-10-01T12:58:30.886Z,12.40
2018-10-01T13:01:01.336Z,12.40
2018-10-01T13:03:31.630Z,12.40
2018-10-01T13:06:02.008Z,12.40
2018-10-01T13:08:32.631Z,12.40
2018-10-01T13:11:03.010Z,12.40
2018-10-01T13:13:33.456Z,12.40
2018-10-01T13:16:03.770Z,12.30
2018-10-01T13:18:34.169Z,12.20
2018-10-01T13:21:04.564Z,12.20
2018-10-01T13:23:34.860Z,12.10
2018-10-01T13:26:05.689Z,12.10
2018-10-01T13:28:36.012Z,12.10
2018-10-01T13:31:06.758Z,12.10
2018-10-01T13:33:37.043Z,12.20
2018-10-01T13:36:07.692Z,12.20
2018-10-01T13:38:38.328Z,12.20
2018-10-01T13:41:08.751Z,12.20
2018-10-01T13:43:39.010Z,12.10
2018-10-01T13:46:10.484Z,12.00
2018-10-01T13:48:40.832Z,12.00
2018-10-01T13:51:11.153Z,12.00
2018-10-01T13:53:41.420Z,11.90
2018-10-01T13:56:12.137Z,12.00
2018-10-01T13:58:42.555Z,12.00
2018-10-01T14:01:12.910Z,11.90
2018-10-01T14:03:43.250Z,12.00
2018-10-01T14:06:13.719Z,12.00
2018-10-01T14:08:44.101Z,12.00
2018-10-01T14:11:14.429Z,12.00
2018-10-01T14:13:51.431Z,12.00
2018-10-01T14:16:21.904Z,12.00
2018-10-01T14:18:52.186Z,12.00
2018-10-01T14:21:22.509Z,12.00
2018-10-01T14:23:53.143Z,12.00
2018-10-01T14:26:24.419Z,12.10
2018-10-01T14:28:54.870Z,12.10
2018-10-01T14:31:25.530Z,12.20
2018-10-01T14:33:56.058Z,12.30
2018-10-01T14:36:26.870Z,12.30
2018-10-01T14:38:57.472Z,12.40
2018-10-01T14:41:27.792Z,12.50
2018-10-01T14:43:58.079Z,12.50
2018-10-01T14:46:28.513Z,12.50
2018-10-01T14:48:58.786Z,12.40
2018-10-01T14:51:29.199Z,12.40
2018-10-01T14:53:59.600Z,12.30
2018-10-01T14:56:30.088Z,12.30
2018-10-01T14:59:00.365Z,12.20
2018-10-01T15:01:30.800Z,12.20
2018-10-01T15:04:01.175Z,12.20
2018-10-01T15:06:31.643Z,12.10
2018-10-01T15:09:02.050Z,12.10
2018-10-01T15:11:32.472Z,12.10
2018-10-01T15:14:02.876Z,12.20
2018-10-01T15:16:33.208Z,12.20
2018-10-01T15:19:04.529Z,12.30
2018-10-01T15:21:34.819Z,12.30
2018-10-01T15:24:05.127Z,12.30
2018-10-01T15:26:35.533Z,12.30
2018-10-01T15:29:05.872Z,12.30
2018-10-01T15:31:36.186Z,12.30
2018-10-01T15:34:06.460Z,12.10
2018-10-01T15:36:38.675Z,12.00
2018-10-01T15:39:10.725Z,11.90
2018-10-01T15:41:41.045Z,11.80
2018-10-01T15:44:11.337Z,11.70
2018-10-01T15:46:41.554Z,11.70
2018-10-01T15:49:11.819Z,11.70
2018-10-01T15:51:41.999Z,11.60
2018-10-01T15:54:12.303Z,11.70
2018-10-01T15:56:43.487Z,11.70
2018-10-01T15:59:18.971Z,11.60
2018-10-01T16:01:49.370Z,11.60
2018-10-01T16:04:19.745Z,11.60
2018-10-01T16:06:50.138Z,11.60
2018-10-01T16:09:20.581Z,11.50
2018-10-01T16:11:51.349Z,11.50
2018-10-01T16:14:21.685Z,11.50
2018-10-01T16:16:59.296Z,11.50
2018-10-01T16:19:30.324Z,11.50
2018-10-01T16:22:02.093Z,11.50
2018-10-01T16:27:11.548Z,11.50
2018-10-01T16:29:50.860Z,11.50
2018-10-01T16:32:28.379Z,11.50
2018-10-01T16:34:58.580Z,11.50
2018-10-01T16:37:28.934Z,11.50
2018-10-01T16:39:59.236Z,11.50
2018-10-01T16:45:05.011Z,11.50
2018-10-01T16:47:35.343Z,11.40
2018-10-01T16:50:06.709Z,11.40
2018-10-01T16:52:37.125Z,11.40
2018-10-01T16:55:08.171Z,11.40
2018-10-01T16:57:38.555Z,11.30
2018-10-01T17:00:13.515Z,11.30
2018-10-01T17:02:54.505Z,11.30
2018-10-01T17:05:24.941Z,11.20
2018-10-01T17:08:01.327Z,11.10
2018-10-01T17:10:31.644Z,11.10
2018-10-01T17:13:02.076Z,11.10
2018-10-01T17:15:32.391Z,11.10
2018-10-01T17:18:02.689Z,11.00
2018-10-01T17:20:33.364Z,11.00
2018-10-01T17:23:03.845Z,11.00
2018-10-01T17:25:34.404Z,10.90
2018-10-01T17:28:04.873Z,10.90
2018-10-01T17:30:35.310Z,10.90
2018-10-01T17:33:06.057Z,10.80
2018-10-01T17:35:37.546Z,10.80
2018-10-01T17:38:08.034Z,10.70
2018-10-01T17:40:39.119Z,10.70
2018-10-01T17:43:09.955Z,10.60
2018-10-01T17:45:40.416Z,10.60
2018-10-01T17:48:10.678Z,10.60
2018-10-01T17:51:03.086Z,10.60
2018-10-01T17:53:41.524Z,10.50
2018-10-01T17:56:12.276Z,10.50
2018-10-01T17:58:43.598Z,10.50
2018-10-01T18:01:14.571Z,10.40
2018-10-01T18:03:45.436Z,10.40
2018-10-01T18:06:16.534Z,10.40
2018-10-01T18:08:47.614Z,10.40
2018-10-01T18:11:18.577Z,10.30
2018-10-01T18:13:49.632Z,10.30
2018-10-01T18:16:20.532Z,10.20
2018-10-01T18:18:51.449Z,10.20
2018-10-01T18:21:22.479Z,10.20
2018-10-01T18:26:27.014Z,10.20
2018-10-01T18:28:57.936Z,10.10
2018-10-01T18:31:29.286Z,10.10
2018-10-01T18:34:00.499Z,10.10
2018-10-01T18:36:31.335Z,10.00
2018-10-01T18:39:02.682Z,10.00
2018-10-01T18:41:34.018Z,10.00
2018-10-01T18:44:07.240Z,10.00
2018-10-01T18:46:39.340Z,10.00
2018-10-01T18:49:11.542Z,9.90
2018-10-01T18:51:42.496Z,9.90
2018-10-01T18:54:13.761Z,9.90
2018-10-01T18:56:44.825Z,9.90
2018-10-01T18:59:15.797Z,9.90
2018-10-01T19:01:47.330Z,9.90
2018-10-01T19:04:18.305Z,9.90
2018-10-01T19:06:49.271Z,9.90
2018-10-01T19:09:20.208Z,9.90
2018-10-01T19:11:51.027Z,9.80
2018-10-01T19:14:22.080Z,9.80
2018-10-01T19:16:53.027Z,9.80
2018-10-01T19:19:24.030Z,9.80
2018-10-01T19:21:54.882Z,9.70
2018-10-01T19:24:26.334Z,9.70
2018-10-01T19:26:57.198Z,9.70
2018-10-01T19:29:28.141Z,9.70
2018-10-01T19:31:59.093Z,9.60
2018-10-01T19:34:30.066Z,9.60
2018-10-01T19:37:01.058Z,9.60
2018-10-01T19:39:31.994Z,9.60
2018-10-01T19:42:03.020Z,9.50
2018-10-01T19:44:34.373Z,9.50
2018-10-01T19:47:06.310Z,9.40
2018-10-01T19:49:37.325Z,9.40
2018-10-01T19:52:08.427Z,9.40
2018-10-01T19:54:39.397Z,9.30
2018-10-01T19:57:10.345Z,9.30
2018-10-01T19:59:41.213Z,9.30
2018-10-01T20:02:12.146Z,9.30
2018-10-01T20:04:43.105Z,9.30
2018-10-01T20:07:14.096Z,9.30
2018-10-01T20:09:46.455Z,9.20
2018-10-01T20:12:17.516Z,9.20
2018-10-01T20:14:48.513Z,9.20
2018-10-01T20:17:19.900Z,9.10
2018-10-01T20:19:51.124Z,9.10
2018-10-01T20:22:23.143Z,9.10
2018-10-01T20:24:54.134Z,9.10
2018-10-01T20:27:25.080Z,9.00
2018-10-01T20:29:56.005Z,9.00
2018-10-01T20:32:27.067Z,9.00
2018-10-01T20:34:57.967Z,9.00
2018-10-01T20:37:28.789Z,8.90
2018-10-01T20:39:59.903Z,8.90
2018-10-01T20:42:30.867Z,8.90
2018-10-01T20:45:01.957Z,8.90
2018-10-01T20:47:40.619Z,8.90
2018-10-01T20:50:11.546Z,8.90
2018-10-01T20:52:42.427Z,8.80
2018-10-01T20:55:12.796Z,8.80
2018-10-01T20:57:43.019Z,8.80
2018-10-01T21:00:13.291Z,8.70
2018-10-01T21:02:43.562Z,8.70
2018-10-01T21:05:13.868Z,8.70
2018-10-01T21:07:44.177Z,8.70
2018-10-01T21:10:14.581Z,8.70
2018-10-01T21:12:44.814Z,8.70
2018-10-01T21:15:15.211Z,8.60
2018-10-01T21:17:45.500Z,8.60
2018-10-01T21:20:15.868Z,8.60
2018-10-01T21:22:46.171Z,8.60
2018-10-01T21:25:16.518Z,8.50
2018-10-01T21:27:46.883Z,8.50
2018-10-01T21:30:17.164Z,8.50
2018-10-01T21:32:47.389Z,8.50
2018-10-01T21:35:17.639Z,8.50
2018-10-01T21:37:47.943Z,8.50
2018-10-01T21:40:18.722Z,8.50
2018-10-01T21:42:49.103Z,8.40
2018-10-01T21:45:19.787Z,8.40
2018-10-01T21:47:50.113Z,8.40
2018-10-01T21:50:20.368Z,8.30
2018-10-01T21:52:50.779Z,8.30
2018-10-01T21:55:21.106Z,8.30
2018-10-01T21:57:51.465Z,8.30
2018-10-01T22:00:21.908Z,8.30
2018-10-01T22:02:52.302Z,8.20
2018-10-01T22:05:22.591Z,8.20
2018-10-01T22:07:59.711Z,8.20
2018-10-01T22:10:29.947Z,8.20
2018-10-01T22:13:00.254Z,8.20
2018-10-01T22:15:35.592Z,8.10
2018-10-01T22:18:05.895Z,8.10
2018-10-01T22:20:36.254Z,8.10
2018-10-01T22:23:06.582Z,8.10
2018-10-01T22:25:36.828Z,8.10
2018-10-01T22:28:07.309Z,8.10
2018-10-01T22:30:37.659Z,8.10
2018-10-01T22:33:08.124Z,8.10
2018-10-01T22:35:38.414Z,8.00
2018-10-01T22:38:08.692Z,8.00
2018-10-01T22:40:39.040Z,8.00
2018-10-01T22:43:09.371Z,8.00
2018-10-01T22:45:39.689Z,8.00
2018-10-01T22:48:10.014Z,8.00
2018-10-01T22:50:40.294Z,8.00
2018-10-01T22:53:10.535Z,8.00
2018-10-01T22:55:40.809Z,8.00
2018-10-01T22:58:11.122Z,8.00
2018-10-01T23:00:41.361Z,8.00
2018-10-01T23:03:11.693Z,8.00
2018-10-01T23:05:47.789Z,7.90
2018-10-01T23:08:18.126Z,7.90
2018-10-01T23:10:48.430Z,7.90
2018-10-01T23:13:18.646Z,7.90
2018-10-01T23:15:48.927Z,7.90
2018-10-01T23:18:19.192Z,7.90
2018-10-01T23:20:49.511Z,7.90
2018-10-01T23:23:19.666Z,7.90
2018-10-01T23:25:49.845Z,7.90
2018-10-01T23:28:20.229Z,7.90
2018-10-01T23:30:50.753Z,7.90
2018-10-01T23:33:21.091Z,7.90
2018-10-01T23:35:51.408Z,7.90
2018-10-01T23:38:21.727Z,7.90
2018-10-01T23:40:52.002Z,7.90
2018-10-01T23:43:22.367Z,7.90
2018-10-01T23:45:52.681Z,7.90
2018-10-01T23:48:22.963Z,7.90
2018-10-01T23:50:53.132Z,7.90
2018-10-01T23:53:23.342Z,7.90
2018-10-01T23:55:53.624Z,7.90
2018-10-01T23:58:23.853Z,8.00
